CheckWX is a tool to help pilots better visualize weather data.  It is not intended as a substitute for an official pre-flight weather briefing.

05:18:53 UTC

FBKE METAR
Kasane Airport
Kasane, Botswana
Current

19 mins ago

FBKE 240500Z 11003KT CAVOK 06/01 Q1021
Observed
Jul-24 @ 05:00 UTC
Wind
  • 110° at 3 KTS
Visibility
10,000+ meters
Flight Rules
VFR
Cloud Levels
  • Clear skies
Temperature
C / 43°F
Dewpoint
C / 34°F
Humidity
71%
Altimeter
30.15" Hg
Pressure
1020.92 hPa
Previous

1 hour ago

FBKE 240400Z 13004KT CAVOK 07/02 Q1021
Observed
Jul-24 @ 04:00 UTC
Wind
  • 130° at 4 KTS
Visibility
10,000+ meters
Flight Rules
VFR
Cloud Levels
  • Clear skies
Temperature
C / 45°F
Dewpoint
C / 36°F
Humidity
71%
Altimeter
30.15" Hg
Pressure
1020.92 hPa
Previous

11 hours ago

FBKE 231800Z 23003KT CAVOK 15/02 Q1020
Observed
Jul-23 @ 18:00 UTC
Wind
  • 230° at 3 KTS
Visibility
10,000+ meters
Flight Rules
VFR
Cloud Levels
  • Clear skies
Temperature
15°C / 59°F
Dewpoint
C / 36°F
Humidity
42%
Altimeter
30.12" Hg
Pressure
1019.92 hPa